Arklow Spray — C6VK8 — position and weather

sailwx.info

Track history (hours):
 
Tides and Currents Weather Stations Pressure Air Temp Water Temp Dewpoint Dewpoint Depression Visibility Wind Speed Wind Dir Waves Ship Positions

Arklow Spray

Last reported at 2015-Jul-31 08:32 UTC. Time now 2015-Jul-31 21:24 UTC.
Position N 53°31' E 004°47'.

Length 16 m; draft 4.7 m.

Type: Pilot. MMSI: 309914000.

Date/timePositionNaut miles runAvg speedWind from/ knotsBaromVisibWave heightAir tempDewpointWater temp
2015-Jul-31 08:32N 53°31' E 004°47'9 9.1
2015-Jul-31 07:33N 53°34' E 005°00'9 8.6
2015-Jul-31 06:33N 53°38' E 005°14'8 8.3
2015-Jul-31 05:33N 53°40' E 005°27'8 8.3
2015-Jul-31 04:33N 53°43' E 005°41'9 9.1
2015-Jul-31 03:33N 53°46' E 005°55'50 9.7
2015-Jul-30 22:26N 53°59' E 007°17'7 7.9
2015-Jul-30 21:33N 54°00' E 007°28'8 7.5
2015-Jul-30 20:33N 54°02' E 007°41'7 6.6
2015-Jul-30 19:33N 54°02' E 007°52'7 6.7
2015-Jul-30 18:33N 54°01' E 008°03'9 7.5
2015-Jul-30 17:24N 54°00' E 008°18'910.4
2015-Jul-30 16:33N 53°58' E 008°32'1212.2
2015-Jul-30 15:33N 53°51' E 008°48'1211.9
2015-Jul-30 14:33N 53°53' E 009°08'1 1.1
2015-Jul-30 13:33N 53°54' E 009°09'0 0.1
2015-Jul-30 12:33N 53°54' E 009°09'7 7.2
2015-Jul-30 11:33N 53°60' E 009°17'11 7.6
2015-Jul-30 10:07N 54°10' E 009°24'5 8.6
2015-Jul-30 09:33N 54°12' E 009°32'8 7.9
2015-Jul-30 08:33N 54°18' E 009°41'8 7.7
2015-Jul-30 07:33N 54°22' E 009°52'7 6.9
2015-Jul-30 06:33N 54°22' E 010°04'3 2.7
2015-Jul-30 05:33N 54°22' E 010°08'1 1.1
2015-Jul-30 04:33N 54°22' E 010°10'9 9.0
2015-Jul-30 03:33N 54°30' E 010°18'9 9.5
2015-Jul-30 02:33N 54°34' E 010°33'13 5.6
2015-Jul-30 00:13N 54°36' E 010°56'3 4.2
2015-Jul-29 23:33N 54°36' E 011°01'5 4.8
2015-Jul-29 22:33N 54°36' E 011°09'6 5.8
2015-Jul-29 21:33N 54°34' E 011°18'6 6.3
2015-Jul-29 20:33N 54°32' E 011°28'6 6.3
2015-Jul-29 19:32N 54°29' E 011°38'7 6.5
2015-Jul-29 18:30N 54°27' E 011°49'7 6.9
2015-Jul-29 17:33N 54°27' E 012°00'6 6.2
2015-Jul-29 16:33N 54°29' E 012°10'78 8.7
2015-Jul-29 07:33N 54°54' E 014°19'9 8.9
2015-Jul-29 06:33N 54°54' E 014°34'8 8.4
2015-Jul-29 05:33N 54°54' E 014°49'8 7.8
2015-Jul-29 04:33N 54°54' E 015°03'12 8.1
2015-Jul-29 03:04N 54°57' E 015°23'5 8.8
2015-Jul-29 02:32N 54°58' E 015°31'  
2015-Jul-23 09:21N 55°36' E 012°29'23133.6
2015-Jul-23 02:29N 55°38' E 019°18'6711.2
2015-Jul-22 20:30N 55°32' E 017°19'6711.2
2015-Jul-22 14:33N 55°26' E 015°22'1111.1
2015-Jul-22 13:33N 55°24' E 015°03'1111.4
2015-Jul-22 12:34N 55°23' E 014°43'1110.6
2015-Jul-22 11:34N 55°16' E 014°30'1010.4
2015-Jul-22 10:34N 55°09' E 014°17'1211.2
2015-Jul-22 09:30N 55°09' E 013°56'1111.3
2015-Jul-22 08:33N 55°10' E 013°37'1111.3
2015-Jul-22 07:34N 55°10' E 013°18'1111.1
2015-Jul-22 06:33N 55°13' E 012°58'1111.2
2015-Jul-22 05:33N 55°17' E 012°41'9 9.4
2015-Jul-22 04:33N 55°27' E 012°40'1111.5
2015-Jul-22 03:34N 55°38' E 012°42'1111.2
2015-Jul-22 02:34N 55°49' E 012°42'1111.1
2015-Jul-22 01:34N 56°00' E 012°38'1010.3
2015-Jul-22 00:33N 56°09' E 012°27'1110.4
2015-Jul-21 23:27N 56°11' E 012°07'  
Track history (hours):
 
Tides and Currents Weather Stations Pressure Air Temp Water Temp Dewpoint Dewpoint Depression Visibility Wind Speed Wind Dir Waves Ship Positions

Arklow Spray

Last reported at 2015-Jul-31 08:32 UTC. Time now 2015-Jul-31 21:24 UTC.
Position N 53°31' E 004°47'.

Length 16 m; draft 4.7 m.

Type: Pilot. MMSI: 309914000.

Date/timePositionNaut miles runAvg speedWind from/ knotsBaromVisibWave heightAir tempDewpointWater temp
2015-Jul-31 08:32N 53°31' E 004°47'9 9.1
2015-Jul-31 07:33N 53°34' E 005°00'9 8.6
2015-Jul-31 06:33N 53°38' E 005°14'8 8.3
2015-Jul-31 05:33N 53°40' E 005°27'8 8.3
2015-Jul-31 04:33N 53°43' E 005°41'9 9.1
2015-Jul-31 03:33N 53°46' E 005°55'50 9.7
2015-Jul-30 22:26N 53°59' E 007°17'7 7.9
2015-Jul-30 21:33N 54°00' E 007°28'8 7.5
2015-Jul-30 20:33N 54°02' E 007°41'7 6.6
2015-Jul-30 19:33N 54°02' E 007°52'7 6.7
2015-Jul-30 18:33N 54°01' E 008°03'9 7.5
2015-Jul-30 17:24N 54°00' E 008°18'910.4
2015-Jul-30 16:33N 53°58' E 008°32'1212.2
2015-Jul-30 15:33N 53°51' E 008°48'1211.9
2015-Jul-30 14:33N 53°53' E 009°08'1 1.1
2015-Jul-30 13:33N 53°54' E 009°09'0 0.1
2015-Jul-30 12:33N 53°54' E 009°09'7 7.2
2015-Jul-30 11:33N 53°60' E 009°17'11 7.6
2015-Jul-30 10:07N 54°10' E 009°24'5 8.6
2015-Jul-30 09:33N 54°12' E 009°32'8 7.9
2015-Jul-30 08:33N 54°18' E 009°41'8 7.7
2015-Jul-30 07:33N 54°22' E 009°52'7 6.9
2015-Jul-30 06:33N 54°22' E 010°04'3 2.7
2015-Jul-30 05:33N 54°22' E 010°08'1 1.1
2015-Jul-30 04:33N 54°22' E 010°10'9 9.0
2015-Jul-30 03:33N 54°30' E 010°18'9 9.5
2015-Jul-30 02:33N 54°34' E 010°33'13 5.6
2015-Jul-30 00:13N 54°36' E 010°56'3 4.2
2015-Jul-29 23:33N 54°36' E 011°01'5 4.8
2015-Jul-29 22:33N 54°36' E 011°09'6 5.8
2015-Jul-29 21:33N 54°34' E 011°18'6 6.3
2015-Jul-29 20:33N 54°32' E 011°28'6 6.3
2015-Jul-29 19:32N 54°29' E 011°38'7 6.5
2015-Jul-29 18:30N 54°27' E 011°49'7 6.9
2015-Jul-29 17:33N 54°27' E 012°00'6 6.2
2015-Jul-29 16:33N 54°29' E 012°10'78 8.7
2015-Jul-29 07:33N 54°54' E 014°19'9 8.9
2015-Jul-29 06:33N 54°54' E 014°34'8 8.4
2015-Jul-29 05:33N 54°54' E 014°49'8 7.8
2015-Jul-29 04:33N 54°54' E 015°03'12 8.1
2015-Jul-29 03:04N 54°57' E 015°23'5 8.8
2015-Jul-29 02:32N 54°58' E 015°31'  
2015-Jul-23 09:21N 55°36' E 012°29'23133.6
2015-Jul-23 02:29N 55°38' E 019°18'6711.2
2015-Jul-22 20:30N 55°32' E 017°19'6711.2
2015-Jul-22 14:33N 55°26' E 015°22'1111.1
2015-Jul-22 13:33N 55°24' E 015°03'1111.4
2015-Jul-22 12:34N 55°23' E 014°43'1110.6
2015-Jul-22 11:34N 55°16' E 014°30'1010.4
2015-Jul-22 10:34N 55°09' E 014°17'1211.2
2015-Jul-22 09:30N 55°09' E 013°56'1111.3
2015-Jul-22 08:33N 55°10' E 013°37'1111.3
2015-Jul-22 07:34N 55°10' E 013°18'1111.1
2015-Jul-22 06:33N 55°13' E 012°58'1111.2
2015-Jul-22 05:33N 55°17' E 012°41'9 9.4
2015-Jul-22 04:33N 55°27' E 012°40'1111.5
2015-Jul-22 03:34N 55°38' E 012°42'1111.2
2015-Jul-22 02:34N 55°49' E 012°42'1111.1
2015-Jul-22 01:34N 56°00' E 012°38'1010.3
2015-Jul-22 00:33N 56°09' E 012°27'1110.4
2015-Jul-21 23:27N 56°11' E 012°07'  

Dump ship's entire track history